sensor_id;sensor_type;location;lat;lon;timestamp;temperature;humidity
63047;DHT22;62025;39.238;9.126;2022-08-27T00:00:10;28.00;64.80
63047;DHT22;62025;39.238;9.126;2022-08-27T00:02:42;27.90;65.60
63047;DHT22;62025;39.238;9.126;2022-08-27T00:05:10;28.00;65.50
63047;DHT22;62025;39.238;9.126;2022-08-27T00:07:38;28.00;65.80
63047;DHT22;62025;39.238;9.126;2022-08-27T00:10:07;28.00;66.70
63047;DHT22;62025;39.238;9.126;2022-08-27T00:12:35;27.90;66.70
63047;DHT22;62025;39.238;9.126;2022-08-27T00:15:04;27.90;66.80
63047;DHT22;62025;39.238;9.126;2022-08-27T00:17:32;27.90;67.20
63047;DHT22;62025;39.238;9.126;2022-08-27T00:19:58;27.90;66.90
63047;DHT22;62025;39.238;9.126;2022-08-27T00:22:24;27.90;67.60
63047;DHT22;62025;39.238;9.126;2022-08-27T00:24:50;27.90;67.50
63047;DHT22;62025;39.238;9.126;2022-08-27T00:27:17;27.80;67.70
63047;DHT22;62025;39.238;9.126;2022-08-27T00:29:44;27.90;67.70
63047;DHT22;62025;39.238;9.126;2022-08-27T00:32:11;27.90;67.40
63047;DHT22;62025;39.238;9.126;2022-08-27T00:34:37;27.80;67.80
63047;DHT22;62025;39.238;9.126;2022-08-27T00:37:04;27.80;67.50
63047;DHT22;62025;39.238;9.126;2022-08-27T00:39:32;27.80;67.40
63047;DHT22;62025;39.238;9.126;2022-08-27T00:41:58;27.90;67.20
63047;DHT22;62025;39.238;9.126;2022-08-27T00:44:26;27.90;67.00
63047;DHT22;62025;39.238;9.126;2022-08-27T00:47:03;27.90;66.80
63047;DHT22;62025;39.238;9.126;2022-08-27T00:55:26;27.80;65.60
63047;DHT22;62025;39.238;9.126;2022-08-27T00:58:05;27.80;65.20
63047;DHT22;62025;39.238;9.126;2022-08-27T01:00:34;27.80;64.90
63047;DHT22;62025;39.238;9.126;2022-08-27T01:03:00;27.90;64.40
63047;DHT22;62025;39.238;9.126;2022-08-27T01:05:26;27.80;64.10
63047;DHT22;62025;39.238;9.126;2022-08-27T01:07:57;27.80;63.80
63047;DHT22;62025;39.238;9.126;2022-08-27T01:10:27;27.90;63.30
63047;DHT22;62025;39.238;9.126;2022-08-27T01:12:55;27.90;63.30
63047;DHT22;62025;39.238;9.126;2022-08-27T01:15:24;27.80;63.10
63047;DHT22;62025;39.238;9.126;2022-08-27T01:17:52;27.70;63.10
63047;DHT22;62025;39.238;9.126;2022-08-27T01:20:27;27.80;62.90
63047;DHT22;62025;39.238;9.126;2022-08-27T01:23:19;27.80;62.60
63047;DHT22;62025;39.238;9.126;2022-08-27T01:25:51;27.80;62.40
63047;DHT22;62025;39.238;9.126;2022-08-27T01:28:18;27.80;62.20
63047;DHT22;62025;39.238;9.126;2022-08-27T01:30:46;27.80;61.90
63047;DHT22;62025;39.238;9.126;2022-08-27T01:33:15;27.80;62.00
63047;DHT22;62025;39.238;9.126;2022-08-27T01:35:45;27.80;61.70
63047;DHT22;62025;39.238;9.126;2022-08-27T01:38:13;27.70;62.00
63047;DHT22;62025;39.238;9.126;2022-08-27T01:40:40;27.70;61.90
63047;DHT22;62025;39.238;9.126;2022-08-27T01:43:07;27.70;62.00
63047;DHT22;62025;39.238;9.126;2022-08-27T01:45:36;27.70;62.10
63047;DHT22;62025;39.238;9.126;2022-08-27T01:48:04;27.70;62.00
63047;DHT22;62025;39.238;9.126;2022-08-27T01:50:37;27.80;62.00
63047;DHT22;62025;39.238;9.126;2022-08-27T01:53:11;27.70;61.90
63047;DHT22;62025;39.238;9.126;2022-08-27T01:55:41;27.70;61.70
63047;DHT22;62025;39.238;9.126;2022-08-27T01:58:09;27.70;61.50
63047;DHT22;62025;39.238;9.126;2022-08-27T02:00:38;27.70;61.30
63047;DHT22;62025;39.238;9.126;2022-08-27T02:03:07;27.70;61.20
63047;DHT22;62025;39.238;9.126;2022-08-27T02:05:34;27.60;61.20
63047;DHT22;62025;39.238;9.126;2022-08-27T02:08:00;27.60;60.90
63047;DHT22;62025;39.238;9.126;2022-08-27T02:10:30;27.70;61.00
63047;DHT22;62025;39.238;9.126;2022-08-27T02:12:58;27.70;60.70
63047;DHT22;62025;39.238;9.126;2022-08-27T02:15:25;27.60;60.80
63047;DHT22;62025;39.238;9.126;2022-08-27T02:17:51;27.60;60.90
63047;DHT22;62025;39.238;9.126;2022-08-27T02:20:18;27.50;61.20
63047;DHT22;62025;39.238;9.126;2022-08-27T02:22:45;27.60;61.10
63047;DHT22;62025;39.238;9.126;2022-08-27T02:25:13;27.60;61.20
63047;DHT22;62025;39.238;9.126;2022-08-27T02:27:42;27.60;61.30
63047;DHT22;62025;39.238;9.126;2022-08-27T02:30:11;27.60;61.00
63047;DHT22;62025;39.238;9.126;2022-08-27T02:32:39;27.60;61.10
63047;DHT22;62025;39.238;9.126;2022-08-27T02:35:05;27.50;61.10
63047;DHT22;62025;39.238;9.126;2022-08-27T02:37:32;27.50;61.20
63047;DHT22;62025;39.238;9.126;2022-08-27T02:39:58;27.50;61.10
63047;DHT22;62025;39.238;9.126;2022-08-27T02:42:26;27.50;61.30
63047;DHT22;62025;39.238;9.126;2022-08-27T02:44:52;27.50;61.20
63047;DHT22;62025;39.238;9.126;2022-08-27T02:47:21;27.40;61.60
63047;DHT22;62025;39.238;9.126;2022-08-27T02:49:47;27.40;62.10
63047;DHT22;62025;39.238;9.126;2022-08-27T02:52:13;27.40;62.30
63047;DHT22;62025;39.238;9.126;2022-08-27T02:54:42;27.40;62.60
63047;DHT22;62025;39.238;9.126;2022-08-27T02:57:08;27.40;63.10
63047;DHT22;62025;39.238;9.126;2022-08-27T02:59:35;27.40;63.20
63047;DHT22;62025;39.238;9.126;2022-08-27T03:02:02;27.30;64.00
63047;DHT22;62025;39.238;9.126;2022-08-27T03:04:28;27.30;64.40
63047;DHT22;62025;39.238;9.126;2022-08-27T03:06:55;27.30;64.50
63047;DHT22;62025;39.238;9.126;2022-08-27T03:09:21;27.30;65.00
63047;DHT22;62025;39.238;9.126;2022-08-27T03:11:47;27.30;65.60
63047;DHT22;62025;39.238;9.126;2022-08-27T03:14:13;27.20;66.00
63047;DHT22;62025;39.238;9.126;2022-08-27T03:16:39;27.30;66.20
63047;DHT22;62025;39.238;9.126;2022-08-27T03:19:06;27.20;66.50
63047;DHT22;62025;39.238;9.126;2022-08-27T03:21:34;27.20;66.90
63047;DHT22;62025;39.238;9.126;2022-08-27T03:24:01;27.10;67.00
63047;DHT22;62025;39.238;9.126;2022-08-27T03:26:29;27.10;67.00
63047;DHT22;62025;39.238;9.126;2022-08-27T03:28:57;27.10;66.90
63047;DHT22;62025;39.238;9.126;2022-08-27T03:31:25;27.10;66.90
63047;DHT22;62025;39.238;9.126;2022-08-27T03:34:00;27.10;66.90
63047;DHT22;62025;39.238;9.126;2022-08-27T03:36:29;27.10;66.90
63047;DHT22;62025;39.238;9.126;2022-08-27T03:38:56;27.10;66.70
63047;DHT22;62025;39.238;9.126;2022-08-27T03:41:23;27.10;66.70
63047;DHT22;62025;39.238;9.126;2022-08-27T03:43:50;27.00;66.70
63047;DHT22;62025;39.238;9.126;2022-08-27T03:46:19;27.10;66.40
63047;DHT22;62025;39.238;9.126;2022-08-27T03:48:46;27.10;66.20
63047;DHT22;62025;39.238;9.126;2022-08-27T03:51:14;27.10;66.40
63047;DHT22;62025;39.238;9.126;2022-08-27T03:53:42;27.10;66.50
63047;DHT22;62025;39.238;9.126;2022-08-27T03:56:09;27.10;66.60
63047;DHT22;62025;39.238;9.126;2022-08-27T03:58:36;27.10;66.50
63047;DHT22;62025;39.238;9.126;2022-08-27T04:01:04;27.20;66.40
63047;DHT22;62025;39.238;9.126;2022-08-27T04:03:31;27.30;66.60
63047;DHT22;62025;39.238;9.126;2022-08-27T04:05:57;27.20;66.90
63047;DHT22;62025;39.238;9.126;2022-08-27T04:08:25;27.10;67.70
63047;DHT22;62025;39.238;9.126;2022-08-27T04:10:51;27.00;68.30
63047;DHT22;62025;39.238;9.126;2022-08-27T04:13:20;26.90;69.00
63047;DHT22;62025;39.238;9.126;2022-08-27T04:15:51;26.90;69.10
63047;DHT22;62025;39.238;9.126;2022-08-27T04:18:20;27.00;68.90
63047;DHT22;62025;39.238;9.126;2022-08-27T04:20:48;27.00;68.20
63047;DHT22;62025;39.238;9.126;2022-08-27T04:23:17;27.10;68.30
63047;DHT22;62025;39.238;9.126;2022-08-27T04:25:44;27.00;68.00
63047;DHT22;62025;39.238;9.126;2022-08-27T04:28:11;26.90;68.40
63047;DHT22;62025;39.238;9.126;2022-08-27T04:30:43;26.90;68.30
63047;DHT22;62025;39.238;9.126;2022-08-27T04:33:12;26.90;68.30
63047;DHT22;62025;39.238;9.126;2022-08-27T04:35:39;26.90;68.20
63047;DHT22;62025;39.238;9.126;2022-08-27T04:38:05;26.90;68.10
63047;DHT22;62025;39.238;9.126;2022-08-27T04:40:32;27.00;67.40
63047;DHT22;62025;39.238;9.126;2022-08-27T04:43:16;26.90;67.60
63047;DHT22;62025;39.238;9.126;2022-08-27T04:45:44;26.90;67.70
63047;DHT22;62025;39.238;9.126;2022-08-27T04:48:13;26.90;67.60
63047;DHT22;62025;39.238;9.126;2022-08-27T04:50:42;26.90;67.50
63047;DHT22;62025;39.238;9.126;2022-08-27T04:53:10;26.90;67.20
63047;DHT22;62025;39.238;9.126;2022-08-27T04:55:50;26.90;67.10
63047;DHT22;62025;39.238;9.126;2022-08-27T04:58:19;26.90;67.00
63047;DHT22;62025;39.238;9.126;2022-08-27T05:00:47;26.90;67.00
63047;DHT22;62025;39.238;9.126;2022-08-27T05:03:17;26.90;66.70
63047;DHT22;62025;39.238;9.126;2022-08-27T05:05:45;27.00;66.30
63047;DHT22;62025;39.238;9.126;2022-08-27T05:08:12;27.00;66.20
63047;DHT22;62025;39.238;9.126;2022-08-27T05:10:44;27.00;66.10
63047;DHT22;62025;39.238;9.126;2022-08-27T05:13:14;26.90;66.20
63047;DHT22;62025;39.238;9.126;2022-08-27T05:15:43;27.00;66.00
63047;DHT22;62025;39.238;9.126;2022-08-27T05:18:10;26.90;66.10
63047;DHT22;62025;39.238;9.126;2022-08-27T05:20:46;26.80;66.50
63047;DHT22;62025;39.238;9.126;2022-08-27T05:23:14;26.80;66.20
63047;DHT22;62025;39.238;9.126;2022-08-27T05:25:44;26.90;65.70
63047;DHT22;62025;39.238;9.126;2022-08-27T05:28:15;26.80;66.50
63047;DHT22;62025;39.238;9.126;2022-08-27T05:30:44;26.60;67.40
63047;DHT22;62025;39.238;9.126;2022-08-27T05:33:12;26.50;67.90
63047;DHT22;62025;39.238;9.126;2022-08-27T05:35:47;26.40;68.50
63047;DHT22;62025;39.238;9.126;2022-08-27T05:38:17;26.50;68.90
63047;DHT22;62025;39.238;9.126;2022-08-27T05:40:44;26.40;69.40
63047;DHT22;62025;39.238;9.126;2022-08-27T05:43:16;26.40;69.60
63047;DHT22;62025;39.238;9.126;2022-08-27T05:45:45;26.50;69.90
63047;DHT22;62025;39.238;9.126;2022-08-27T05:48:13;26.50;70.00
63047;DHT22;62025;39.238;9.126;2022-08-27T05:50:43;26.50;70.40
63047;DHT22;62025;39.238;9.126;2022-08-27T05:53:11;26.50;70.50
63047;DHT22;62025;39.238;9.126;2022-08-27T05:55:43;26.60;70.40
63047;DHT22;62025;39.238;9.126;2022-08-27T05:58:11;26.70;70.10
63047;DHT22;62025;39.238;9.126;2022-08-27T06:00:58;26.90;69.50
63047;DHT22;62025;39.238;9.126;2022-08-27T06:03:33;26.80;69.70
63047;DHT22;62025;39.238;9.126;2022-08-27T06:06:02;26.70;70.60
63047;DHT22;62025;39.238;9.126;2022-08-27T06:08:29;26.70;70.50
63047;DHT22;62025;39.238;9.126;2022-08-27T06:10:56;26.90;70.00
63047;DHT22;62025;39.238;9.126;2022-08-27T06:13:26;27.10;69.50
63047;DHT22;62025;39.238;9.126;2022-08-27T06:16:07;27.10;69.40
63047;DHT22;62025;39.238;9.126;2022-08-27T06:18:36;27.20;69.50
63047;DHT22;62025;39.238;9.126;2022-08-27T06:21:04;26.90;70.00
63047;DHT22;62025;39.238;9.126;2022-08-27T06:23:30;27.10;69.90
63047;DHT22;62025;39.238;9.126;2022-08-27T06:25:57;27.20;69.70
63047;DHT22;62025;39.238;9.126;2022-08-27T06:28:26;27.20;69.50
63047;DHT22;62025;39.238;9.126;2022-08-27T06:31:23;27.30;69.10
63047;DHT22;62025;39.238;9.126;2022-08-27T06:33:53;27.30;68.90
63047;DHT22;62025;39.238;9.126;2022-08-27T06:36:24;27.10;69.00
63047;DHT22;62025;39.238;9.126;2022-08-27T06:38:51;27.20;68.70
63047;DHT22;62025;39.238;9.126;2022-08-27T06:41:19;27.30;68.00
63047;DHT22;62025;39.238;9.126;2022-08-27T06:43:48;27.40;67.30
63047;DHT22;62025;39.238;9.126;2022-08-27T06:46:16;27.70;66.50
63047;DHT22;62025;39.238;9.126;2022-08-27T06:48:44;27.50;66.40
63047;DHT22;62025;39.238;9.126;2022-08-27T06:51:23;27.50;66.40
63047;DHT22;62025;39.238;9.126;2022-08-27T06:53:52;27.60;66.50
63047;DHT22;62025;39.238;9.126;2022-08-27T06:56:20;27.50;66.30
63047;DHT22;62025;39.238;9.126;2022-08-27T06:58:47;27.50;65.50
63047;DHT22;62025;39.238;9.126;2022-08-27T07:01:19;27.40;65.60
63047;DHT22;62025;39.238;9.126;2022-08-27T07:03:47;27.50;65.30
63047;DHT22;62025;39.238;9.126;2022-08-27T07:06:14;27.60;65.30
63047;DHT22;62025;39.238;9.126;2022-08-27T07:08:42;27.50;64.60
63047;DHT22;62025;39.238;9.126;2022-08-27T07:11:09;27.50;64.80
63047;DHT22;62025;39.238;9.126;2022-08-27T07:13:36;27.70;64.20
63047;DHT22;62025;39.238;9.126;2022-08-27T07:16:08;28.20;62.90
63047;DHT22;62025;39.238;9.126;2022-08-27T07:18:37;28.40;62.10
63047;DHT22;62025;39.238;9.126;2022-08-27T07:21:04;28.50;61.50
63047;DHT22;62025;39.238;9.126;2022-08-27T07:23:32;28.70;61.00
63047;DHT22;62025;39.238;9.126;2022-08-27T07:25:59;28.90;60.80
63047;DHT22;62025;39.238;9.126;2022-08-27T07:28:26;28.90;60.60
63047;DHT22;62025;39.238;9.126;2022-08-27T07:30:53;29.00;60.20
63047;DHT22;62025;39.238;9.126;2022-08-27T07:37:26;29.40;59.10
63047;DHT22;62025;39.238;9.126;2022-08-27T07:39:52;29.40;58.30
63047;DHT22;62025;39.238;9.126;2022-08-27T07:42:18;29.40;57.20
63047;DHT22;62025;39.238;9.126;2022-08-27T07:45:03;29.50;57.00
63047;DHT22;62025;39.238;9.126;2022-08-27T07:47:30;29.70;56.30
63047;DHT22;62025;39.238;9.126;2022-08-27T07:49:57;29.90;55.30
63047;DHT22;62025;39.238;9.126;2022-08-27T07:52:23;29.90;54.90
63047;DHT22;62025;39.238;9.126;2022-08-27T07:54:49;29.70;55.40
63047;DHT22;62025;39.238;9.126;2022-08-27T07:57:16;29.90;54.80
63047;DHT22;62025;39.238;9.126;2022-08-27T07:59:42;30.10;54.10
63047;DHT22;62025;39.238;9.126;2022-08-27T08:02:08;30.00;54.50
63047;DHT22;62025;39.238;9.126;2022-08-27T08:04:35;30.10;54.10
63047;DHT22;62025;39.238;9.126;2022-08-27T08:07:01;30.40;53.10
63047;DHT22;62025;39.238;9.126;2022-08-27T08:09:27;30.40;52.90
63047;DHT22;62025;39.238;9.126;2022-08-27T08:11:55;30.40;53.30
63047;DHT22;62025;39.238;9.126;2022-08-27T08:14:21;30.60;52.50
63047;DHT22;62025;39.238;9.126;2022-08-27T08:16:47;30.90;51.50
63047;DHT22;62025;39.238;9.126;2022-08-27T08:19:13;30.90;50.90
63047;DHT22;62025;39.238;9.126;2022-08-27T08:21:40;31.00;50.80
63047;DHT22;62025;39.238;9.126;2022-08-27T08:24:07;31.20;50.70
63047;DHT22;62025;39.238;9.126;2022-08-27T08:26:33;31.40;49.90
63047;DHT22;62025;39.238;9.126;2022-08-27T08:29:00;31.30;49.70
63047;DHT22;62025;39.238;9.126;2022-08-27T08:31:29;31.00;48.80
63047;DHT22;62025;39.238;9.126;2022-08-27T08:33:55;31.20;48.60
63047;DHT22;62025;39.238;9.126;2022-08-27T08:36:21;31.20;48.40
63047;DHT22;62025;39.238;9.126;2022-08-27T08:38:48;31.30;49.70
63047;DHT22;62025;39.238;9.126;2022-08-27T08:41:48;31.50;49.10
63047;DHT22;62025;39.238;9.126;2022-08-27T08:52:37;32.10;47.20
63047;DHT22;62025;39.238;9.126;2022-08-27T08:55:22;32.00;46.70
63047;DHT22;62025;39.238;9.126;2022-08-27T09:01:31;31.90;45.30
63047;DHT22;62025;39.238;9.126;2022-08-27T09:03:59;32.10;45.00
63047;DHT22;62025;39.238;9.126;2022-08-27T09:09:20;32.50;44.60
63047;DHT22;62025;39.238;9.126;2022-08-27T09:17:25;32.50;43.90
63047;DHT22;62025;39.238;9.126;2022-08-27T09:19:51;33.00;42.40
63047;DHT22;62025;39.238;9.126;2022-08-27T09:22:55;33.30;41.00
63047;DHT22;62025;39.238;9.126;2022-08-27T09:25:34;33.30;41.00
63047;DHT22;62025;39.238;9.126;2022-08-27T09:28:13;33.70;40.60
63047;DHT22;62025;39.238;9.126;2022-08-27T09:31:05;32.70;41.50
63047;DHT22;62025;39.238;9.126;2022-08-27T09:33:33;32.70;41.40
63047;DHT22;62025;39.238;9.126;2022-08-27T09:36:10;32.70;40.60
63047;DHT22;62025;39.238;9.126;2022-08-27T09:38:49;33.20;39.80
63047;DHT22;62025;39.238;9.126;2022-08-27T09:41:33;33.10;40.00
63047;DHT22;62025;39.238;9.126;2022-08-27T09:44:16;33.80;38.50
63047;DHT22;62025;39.238;9.126;2022-08-27T09:46:57;34.00;37.10
63047;DHT22;62025;39.238;9.126;2022-08-27T09:49:27;33.70;37.50
63047;DHT22;62025;39.238;9.126;2022-08-27T09:51:55;34.30;35.00
63047;DHT22;62025;39.238;9.126;2022-08-27T09:54:30;34.00;34.90
63047;DHT22;62025;39.238;9.126;2022-08-27T09:57:01;34.00;34.50
63047;DHT22;62025;39.238;9.126;2022-08-27T09:59:35;34.00;33.90
63047;DHT22;62025;39.238;9.126;2022-08-27T10:02:18;34.40;32.10
63047;DHT22;62025;39.238;9.126;2022-08-27T10:04:52;34.50;33.10
63047;DHT22;62025;39.238;9.126;2022-08-27T10:07:48;34.20;33.50
63047;DHT22;62025;39.238;9.126;2022-08-27T10:13:04;34.50;34.00
63047;DHT22;62025;39.238;9.126;2022-08-27T10:16:01;34.00;36.60
63047;DHT22;62025;39.238;9.126;2022-08-27T10:27:26;33.70;37.90
63047;DHT22;62025;39.238;9.126;2022-08-27T10:30:09;33.30;37.70
63047;DHT22;62025;39.238;9.126;2022-08-27T10:35:45;32.50;38.70
63047;DHT22;62025;39.238;9.126;2022-08-27T10:47:01;32.10;40.30
63047;DHT22;62025;39.238;9.126;2022-08-27T10:55:56;31.50;42.80
63047;DHT22;62025;39.238;9.126;2022-08-27T10:58:43;31.40;43.80
63047;DHT22;62025;39.238;9.126;2022-08-27T11:04:23;30.80;44.10
63047;DHT22;62025;39.238;9.126;2022-08-27T11:06:53;30.90;45.80
63047;DHT22;62025;39.238;9.126;2022-08-27T11:09:56;30.80;47.00
63047;DHT22;62025;39.238;9.126;2022-08-27T11:12:31;30.90;46.70
63047;DHT22;62025;39.238;9.126;2022-08-27T11:15:08;30.90;46.80
63047;DHT22;62025;39.238;9.126;2022-08-27T11:17:40;30.70;45.30
63047;DHT22;62025;39.238;9.126;2022-08-27T11:20:31;30.40;46.70
63047;DHT22;62025;39.238;9.126;2022-08-27T11:23:09;30.40;48.10
63047;DHT22;62025;39.238;9.126;2022-08-27T11:28:34;30.70;47.70
63047;DHT22;62025;39.238;9.126;2022-08-27T11:39:57;30.20;52.70
63047;DHT22;62025;39.238;9.126;2022-08-27T11:45:20;30.10;53.90
63047;DHT22;62025;39.238;9.126;2022-08-27T11:47:58;30.30;54.00
63047;DHT22;62025;39.238;9.126;2022-08-27T11:50:28;29.60;55.30
63047;DHT22;62025;39.238;9.126;2022-08-27T11:53:02;29.60;55.50
63047;DHT22;62025;39.238;9.126;2022-08-27T11:55:32;29.70;55.40
63047;DHT22;62025;39.238;9.126;2022-08-27T12:00:45;29.50;54.50
63047;DHT22;62025;39.238;9.126;2022-08-27T12:17:37;29.90;54.50
63047;DHT22;62025;39.238;9.126;2022-08-27T12:26:28;29.90;58.70
63047;DHT22;62025;39.238;9.126;2022-08-27T12:40:59;29.70;57.70
63047;DHT22;62025;39.238;9.126;2022-08-27T12:43:30;29.80;58.20
63047;DHT22;62025;39.238;9.126;2022-08-27T12:46:15;29.90;59.00
63047;DHT22;62025;39.238;9.126;2022-08-27T12:48:47;30.00;59.90
63047;DHT22;62025;39.238;9.126;2022-08-27T12:51:29;29.80;59.90
63047;DHT22;62025;39.238;9.126;2022-08-27T12:57:02;29.60;61.40
63047;DHT22;62025;39.238;9.126;2022-08-27T13:05:42;29.50;61.30
63047;DHT22;62025;39.238;9.126;2022-08-27T13:10:55;29.40;56.90
63047;DHT22;62025;39.238;9.126;2022-08-27T13:13:23;29.50;59.70
63047;DHT22;62025;39.238;9.126;2022-08-27T13:15:52;29.40;61.40
63047;DHT22;62025;39.238;9.126;2022-08-27T13:18:23;29.70;60.70
63047;DHT22;62025;39.238;9.126;2022-08-27T13:20:50;29.70;60.60
63047;DHT22;62025;39.238;9.126;2022-08-27T13:23:26;29.90;59.90
63047;DHT22;62025;39.238;9.126;2022-08-27T13:26:03;29.50;60.30
63047;DHT22;62025;39.238;9.126;2022-08-27T13:28:32;29.40;63.00
63047;DHT22;62025;39.238;9.126;2022-08-27T13:31:00;29.30;62.50
63047;DHT22;62025;39.238;9.126;2022-08-27T13:33:31;29.40;62.10
63047;DHT22;62025;39.238;9.126;2022-08-27T13:36:00;29.20;61.30
63047;DHT22;62025;39.238;9.126;2022-08-27T13:38:30;29.30;60.20
63047;DHT22;62025;39.238;9.126;2022-08-27T13:41:11;29.50;59.90
63047;DHT22;62025;39.238;9.126;2022-08-27T13:43:46;29.60;62.10
63047;DHT22;62025;39.238;9.126;2022-08-27T13:46:17;29.40;63.30
63047;DHT22;62025;39.238;9.126;2022-08-27T13:48:49;29.60;63.30
63047;DHT22;62025;39.238;9.126;2022-08-27T13:51:32;29.60;62.90
63047;DHT22;62025;39.238;9.126;2022-08-27T13:54:06;29.50;62.90
63047;DHT22;62025;39.238;9.126;2022-08-27T13:59:30;29.40;62.80
63047;DHT22;62025;39.238;9.126;2022-08-27T14:02:19;29.40;63.60
63047;DHT22;62025;39.238;9.126;2022-08-27T14:05:13;29.50;63.10
63047;DHT22;62025;39.238;9.126;2022-08-27T14:08:11;29.30;64.20
63047;DHT22;62025;39.238;9.126;2022-08-27T14:10:43;29.40;65.00
63047;DHT22;62025;39.238;9.126;2022-08-27T14:15:43;29.20;64.00
63047;DHT22;62025;39.238;9.126;2022-08-27T14:18:27;29.20;64.80
63047;DHT22;62025;39.238;9.126;2022-08-27T14:20:58;29.30;64.60
63047;DHT22;62025;39.238;9.126;2022-08-27T14:23:27;29.40;64.30
63047;DHT22;62025;39.238;9.126;2022-08-27T14:25:56;29.40;64.80
63047;DHT22;62025;39.238;9.126;2022-08-27T14:28:23;29.10;65.70
63047;DHT22;62025;39.238;9.126;2022-08-27T14:30:50;29.10;65.10
63047;DHT22;62025;39.238;9.126;2022-08-27T14:33:16;29.10;66.00
63047;DHT22;62025;39.238;9.126;2022-08-27T14:35:43;29.20;66.20
63047;DHT22;62025;39.238;9.126;2022-08-27T14:38:21;29.30;66.00
63047;DHT22;62025;39.238;9.126;2022-08-27T14:40:52;29.10;65.80
63047;DHT22;62025;39.238;9.126;2022-08-27T14:43:19;29.00;67.00
63047;DHT22;62025;39.238;9.126;2022-08-27T14:45:47;29.00;66.90
63047;DHT22;62025;39.238;9.126;2022-08-27T14:48:28;29.00;67.40
63047;DHT22;62025;39.238;9.126;2022-08-27T14:50:58;29.10;67.30
63047;DHT22;62025;39.238;9.126;2022-08-27T14:53:27;29.20;67.40
63047;DHT22;62025;39.238;9.126;2022-08-27T14:55:53;29.10;67.10
63047;DHT22;62025;39.238;9.126;2022-08-27T14:58:20;28.90;66.80
63047;DHT22;62025;39.238;9.126;2022-08-27T15:00:47;29.00;67.00
63047;DHT22;62025;39.238;9.126;2022-08-27T15:03:13;28.90;67.40
63047;DHT22;62025;39.238;9.126;2022-08-27T15:05:39;29.00;67.70
63047;DHT22;62025;39.238;9.126;2022-08-27T15:08:06;29.10;66.90
63047;DHT22;62025;39.238;9.126;2022-08-27T15:10:32;29.10;64.00
63047;DHT22;62025;39.238;9.126;2022-08-27T15:12:58;29.10;64.50
63047;DHT22;62025;39.238;9.126;2022-08-27T15:15:24;29.00;65.90
63047;DHT22;62025;39.238;9.126;2022-08-27T15:17:50;29.10;65.80
63047;DHT22;62025;39.238;9.126;2022-08-27T15:20:17;29.30;65.90
63047;DHT22;62025;39.238;9.126;2022-08-27T15:22:44;29.20;66.40
63047;DHT22;62025;39.238;9.126;2022-08-27T15:25:14;29.30;67.10
63047;DHT22;62025;39.238;9.126;2022-08-27T15:27:40;29.30;66.70
63047;DHT22;62025;39.238;9.126;2022-08-27T15:30:08;29.20;65.30
63047;DHT22;62025;39.238;9.126;2022-08-27T15:32:39;29.30;65.20
63047;DHT22;62025;39.238;9.126;2022-08-27T15:35:11;29.30;65.80
63047;DHT22;62025;39.238;9.126;2022-08-27T15:37:40;29.30;66.20
63047;DHT22;62025;39.238;9.126;2022-08-27T15:40:09;29.30;67.20
63047;DHT22;62025;39.238;9.126;2022-08-27T15:42:36;29.20;67.90
63047;DHT22;62025;39.238;9.126;2022-08-27T15:45:03;29.10;67.50
63047;DHT22;62025;39.238;9.126;2022-08-27T15:47:30;29.00;68.40
63047;DHT22;62025;39.238;9.126;2022-08-27T15:49:56;29.10;68.60
63047;DHT22;62025;39.238;9.126;2022-08-27T15:52:23;29.20;68.70
63047;DHT22;62025;39.238;9.126;2022-08-27T15:54:50;29.20;68.60
63047;DHT22;62025;39.238;9.126;2022-08-27T15:57:18;29.00;68.90
63047;DHT22;62025;39.238;9.126;2022-08-27T15:59:45;29.10;68.80
63047;DHT22;62025;39.238;9.126;2022-08-27T16:02:20;29.00;68.90
63047;DHT22;62025;39.238;9.126;2022-08-27T16:04:48;29.00;69.20
63047;DHT22;62025;39.238;9.126;2022-08-27T16:07:15;29.00;69.20
63047;DHT22;62025;39.238;9.126;2022-08-27T16:09:41;29.00;69.70
63047;DHT22;62025;39.238;9.126;2022-08-27T16:12:08;28.90;70.40
63047;DHT22;62025;39.238;9.126;2022-08-27T16:14:34;29.00;69.90
63047;DHT22;62025;39.238;9.126;2022-08-27T16:17:01;28.90;70.10
63047;DHT22;62025;39.238;9.126;2022-08-27T16:19:27;28.90;70.90
63047;DHT22;62025;39.238;9.126;2022-08-27T16:21:54;28.90;70.60
63047;DHT22;62025;39.238;9.126;2022-08-27T16:24:20;28.90;70.90
63047;DHT22;62025;39.238;9.126;2022-08-27T16:26:47;28.90;71.50
63047;DHT22;62025;39.238;9.126;2022-08-27T16:29:14;28.90;71.40
63047;DHT22;62025;39.238;9.126;2022-08-27T16:31:41;28.70;71.80
63047;DHT22;62025;39.238;9.126;2022-08-27T16:34:14;28.80;72.20
63047;DHT22;62025;39.238;9.126;2022-08-27T16:36:41;28.70;72.10
63047;DHT22;62025;39.238;9.126;2022-08-27T16:39:08;28.50;72.50
63047;DHT22;62025;39.238;9.126;2022-08-27T16:41:34;28.60;72.20
63047;DHT22;62025;39.238;9.126;2022-08-27T16:44:00;28.50;72.20
63047;DHT22;62025;39.238;9.126;2022-08-27T16:46:26;28.60;72.30
63047;DHT22;62025;39.238;9.126;2022-08-27T16:48:52;28.80;71.70
63047;DHT22;62025;39.238;9.126;2022-08-27T16:51:45;28.80;71.80
63047;DHT22;62025;39.238;9.126;2022-08-27T16:54:12;28.70;72.30
63047;DHT22;62025;39.238;9.126;2022-08-27T16:56:42;28.80;72.20
63047;DHT22;62025;39.238;9.126;2022-08-27T16:59:09;28.70;72.10
63047;DHT22;62025;39.238;9.126;2022-08-27T17:01:39;28.80;72.10
63047;DHT22;62025;39.238;9.126;2022-08-27T17:04:07;28.60;72.40
63047;DHT22;62025;39.238;9.126;2022-08-27T17:06:36;28.50;72.80
63047;DHT22;62025;39.238;9.126;2022-08-27T17:09:03;28.60;72.40
63047;DHT22;62025;39.238;9.126;2022-08-27T17:11:31;28.40;72.80
63047;DHT22;62025;39.238;9.126;2022-08-27T17:14:00;28.50;72.60
63047;DHT22;62025;39.238;9.126;2022-08-27T17:16:29;28.40;72.50
63047;DHT22;62025;39.238;9.126;2022-08-27T17:18:57;28.50;72.30
63047;DHT22;62025;39.238;9.126;2022-08-27T17:21:25;28.70;71.70
63047;DHT22;62025;39.238;9.126;2022-08-27T17:23:54;28.70;71.80
63047;DHT22;62025;39.238;9.126;2022-08-27T17:26:22;28.60;71.80
63047;DHT22;62025;39.238;9.126;2022-08-27T17:28:49;28.50;72.40
63047;DHT22;62025;39.238;9.126;2022-08-27T17:31:34;28.80;71.60
63047;DHT22;62025;39.238;9.126;2022-08-27T17:34:02;28.70;71.60
63047;DHT22;62025;39.238;9.126;2022-08-27T17:36:31;28.60;72.10
63047;DHT22;62025;39.238;9.126;2022-08-27T17:38:57;28.70;71.90
63047;DHT22;62025;39.238;9.126;2022-08-27T17:41:30;28.60;71.60
63047;DHT22;62025;39.238;9.126;2022-08-27T17:44:01;28.80;71.30
63047;DHT22;62025;39.238;9.126;2022-08-27T17:46:29;28.70;71.80
63047;DHT22;62025;39.238;9.126;2022-08-27T17:48:55;28.60;72.30
63047;DHT22;62025;39.238;9.126;2022-08-27T17:51:21;28.50;72.20
63047;DHT22;62025;39.238;9.126;2022-08-27T17:53:50;28.40;72.40
63047;DHT22;62025;39.238;9.126;2022-08-27T17:56:21;28.60;72.10
63047;DHT22;62025;39.238;9.126;2022-08-27T17:58:49;28.70;71.90